createdAt,value
2022-08-17T00:00:34.869Z,99533.50
2022-08-17T00:03:01.782Z,99528.31
2022-08-17T00:05:31.624Z,99535.69
2022-08-17T00:08:01.449Z,99539.22
2022-08-17T00:10:29.509Z,99535.69
2022-08-17T00:13:00.779Z,99535.69
2022-08-17T00:15:28.924Z,99529.44
2022-08-17T00:17:57.341Z,99533.75
2022-08-17T00:20:33.476Z,99522.09
2022-08-17T00:23:08.825Z,99519.38
2022-08-17T00:25:36.899Z,99519.38
2022-08-17T00:28:06.155Z,99520.16
2022-08-17T00:30:51.268Z,99519.38
2022-08-17T00:33:23.727Z,99517.47
2022-08-17T00:35:52.007Z,99508.47
2022-08-17T00:38:21.727Z,99506.88
2022-08-17T00:40:51.779Z,99507.69
2022-08-17T00:43:20.896Z,99513.13
2022-08-17T00:45:49.010Z,99503.03
2022-08-17T00:48:29.547Z,99513.94
2022-08-17T00:51:01.757Z,99509.59
2022-08-17T00:53:31.931Z,99512.56
2022-08-17T00:56:00.728Z,99519.91
2022-08-17T00:58:36.220Z,99525.34
2022-08-17T01:01:05.433Z,99519.91
2022-08-17T01:03:33.502Z,99517.19
2022-08-17T01:06:01.897Z,99518.28
2022-08-17T01:08:32.106Z,99526.44
2022-08-17T01:11:02.213Z,99524.53
2022-08-17T01:13:35.499Z,99520.19
2022-08-17T01:16:09.186Z,99525.63
2022-08-17T01:18:37.234Z,99529.16
2022-08-17T01:21:07.690Z,99522.91
2022-08-17T01:23:37.166Z,99527.50
2022-08-17T01:26:06.397Z,99534.59
2022-08-17T01:28:55.141Z,99527.50
2022-08-17T01:31:22.882Z,99532.69
2022-08-17T01:33:51.020Z,99522.91
2022-08-17T01:36:19.248Z,99526.44
2022-08-17T01:38:48.633Z,99522.06
2022-08-17T01:41:17.980Z,99520.44
2022-08-17T01:43:47.272Z,99516.63
2022-08-17T01:46:16.844Z,99510.38
2022-08-17T01:48:47.520Z,99512.28
2022-08-17T01:51:16.049Z,99516.63
2022-08-17T01:53:46.570Z,99513.38
2022-08-17T01:56:17.303Z,99509.81
2022-08-17T01:58:45.719Z,99507.94
2022-08-17T02:01:14.945Z,99508.19
2022-08-17T02:03:53.478Z,99507.09
2022-08-17T02:06:29.022Z,99516.34
2022-08-17T02:09:03.074Z,99504.66
2022-08-17T02:11:33.619Z,99500.28
2022-08-17T02:14:03.343Z,99500.28
2022-08-17T02:16:37.744Z,99501.94
2022-08-17T02:19:08.120Z,99503.00
2022-08-17T02:21:36.355Z,99497.56
2022-08-17T02:24:04.936Z,99497.56
2022-08-17T02:26:34.341Z,99499.22
2022-08-17T02:29:02.384Z,99503.00
2022-08-17T02:31:31.162Z,99504.66
2022-08-17T02:34:03.704Z,99506.56
2022-08-17T02:36:33.146Z,99503.00
2022-08-17T02:39:20.015Z,99510.09
2022-08-17T02:41:49.322Z,99503.00
2022-08-17T02:44:38.657Z,99503.00
2022-08-17T02:47:05.636Z,99502.19
2022-08-17T02:49:33.682Z,99504.09
2022-08-17T02:52:03.395Z,99500.56
2022-08-17T02:54:40.267Z,99510.63
2022-08-17T02:57:11.583Z,99502.47
2022-08-17T02:59:39.551Z,99508.16
2022-08-17T03:02:08.055Z,99510.63
2022-08-17T03:04:36.125Z,99511.69
2022-08-17T03:07:04.403Z,99512.81
2022-08-17T03:09:32.424Z,99518.22
2022-08-17T03:12:05.773Z,99523.66
2022-08-17T03:14:41.231Z,99522.84
2022-08-17T03:17:15.201Z,99522.00
2022-08-17T03:19:45.890Z,99519.28
2022-08-17T03:22:34.691Z,99523.66
2022-08-17T03:25:01.816Z,99522.84
2022-08-17T03:27:30.068Z,99527.44
2022-08-17T03:29:59.413Z,99533.72
2022-08-17T03:32:27.636Z,99534.53
2022-08-17T03:34:59.544Z,99536.44
2022-08-17T03:37:27.579Z,99530.16
2022-08-17T03:39:55.682Z,99538.31
2022-08-17T03:42:31.974Z,99535.59
2022-08-17T03:45:02.747Z,99545.41
2022-08-17T03:47:47.948Z,99549.19
2022-08-17T03:50:48.183Z,99550.28
2022-08-17T03:53:35.907Z,99544.84
2022-08-17T03:56:22.219Z,99553.00
2022-08-17T03:58:50.380Z,99556.81
2022-08-17T04:01:19.791Z,99556.81
2022-08-17T04:03:47.820Z,99563.88
2022-08-17T04:06:16.608Z,99551.63
2022-08-17T04:08:44.618Z,99552.44
2022-08-17T04:11:12.595Z,99549.72
2022-08-17T04:13:40.601Z,99555.16
2022-08-17T04:16:08.838Z,99545.38
2022-08-17T04:18:38.202Z,99553.53
2022-08-17T04:21:06.506Z,99555.16
2022-08-17T04:23:36.616Z,99563.06
2022-08-17T04:26:04.598Z,99560.91
2022-08-17T04:28:32.627Z,99565.50
2022-08-17T04:31:00.800Z,99569.59
2022-08-17T04:33:29.457Z,99560.38
2022-08-17T04:36:01.220Z,99564.47
2022-08-17T04:38:30.045Z,99572.34
2022-08-17T04:41:15.755Z,99579.16
2022-08-17T04:43:44.614Z,99585.16
2022-08-17T04:46:15.088Z,99581.91
2022-08-17T04:48:47.837Z,99589.53
2022-08-17T04:51:18.662Z,99591.16
2022-08-17T04:53:54.290Z,99588.16
2022-08-17T04:56:22.794Z,99589.00
2022-08-17T04:58:51.502Z,99590.63
2022-08-17T05:01:23.142Z,99597.69
2022-08-17T05:03:52.330Z,99593.09
2022-08-17T05:06:21.764Z,99599.59
2022-08-17T05:08:49.839Z,99590.63
2022-08-17T05:11:17.898Z,99597.16
2022-08-17T05:13:45.952Z,99594.44
2022-08-17T05:16:13.997Z,99587.34
2022-08-17T05:18:41.964Z,99591.16
2022-08-17T05:21:10.035Z,99590.59
2022-08-17T05:23:42.626Z,99587.91
2022-08-17T05:26:15.222Z,99592.53
2022-08-17T05:28:53.964Z,99587.34
2022-08-17T05:31:22.284Z,99594.69
2022-08-17T05:33:50.655Z,99591.41
2022-08-17T05:36:43.660Z,99598.50
2022-08-17T05:39:08.091Z,99597.66
2022-08-17T05:41:41.415Z,99596.59
2022-08-17T05:44:09.571Z,99598.75
2022-08-17T05:46:38.965Z,99605.81
2022-08-17T05:49:08.392Z,99613.97
2022-08-17T05:51:44.470Z,99613.16
2022-08-17T05:54:35.574Z,99606.91
2022-08-17T05:57:16.657Z,99615.88
2022-08-17T05:59:52.253Z,99627.84
2022-08-17T06:02:23.115Z,99616.16
2022-08-17T06:05:00.044Z,99613.44
2022-08-17T06:07:32.742Z,99616.97
2022-08-17T06:10:06.568Z,99621.59
2022-08-17T06:12:39.078Z,99616.16
2022-08-17T06:15:15.813Z,99617.78
2022-08-17T06:17:43.899Z,99612.34
2022-08-17T06:20:12.868Z,99610.44
2022-08-17T06:22:43.361Z,99608.53
2022-08-17T06:25:15.337Z,99610.19
2022-08-17T06:27:45.593Z,99609.09
2022-08-17T06:30:14.877Z,99609.09
2022-08-17T06:32:43.986Z,99610.75
2022-08-17T06:35:12.852Z,99610.75
2022-08-17T06:37:57.060Z,99602.59
2022-08-17T06:40:45.779Z,99598.78
2022-08-17T06:43:20.786Z,99611.28
2022-08-17T06:45:51.835Z,99617.56
2022-08-17T06:48:24.475Z,99616.72
2022-08-17T06:50:54.599Z,99621.09
2022-08-17T06:53:23.679Z,99622.72
2022-08-17T06:55:55.107Z,99622.72
2022-08-17T06:58:24.157Z,99614.56
2022-08-17T07:01:01.174Z,99620.78
2022-08-17T07:03:33.434Z,99623.25
2022-08-17T07:06:04.618Z,99627.91
2022-08-17T07:08:41.302Z,99622.47
2022-08-17T07:11:13.120Z,99630.31
2022-08-17T07:13:51.155Z,99623.00
2022-08-17T07:16:21.655Z,99623.81
2022-08-17T07:18:50.955Z,99628.97
2022-08-17T07:21:26.697Z,99625.19
2022-08-17T07:24:08.160Z,99631.16
2022-08-17T07:26:38.956Z,99622.19
2022-08-17T07:29:07.020Z,99628.44
2022-08-17T07:31:35.023Z,99630.91
2022-08-17T07:34:06.838Z,99630.09
2022-08-17T07:36:34.897Z,99630.09
2022-08-17T07:39:03.493Z,99632.53
2022-08-17T07:41:53.519Z,99642.59
2022-08-17T07:44:24.661Z,99632.53
2022-08-17T07:47:10.643Z,99634.19
2022-08-17T07:49:39.890Z,99645.06
2022-08-17T07:52:47.446Z,99642.34
2022-08-17T07:54:57.556Z,99638.81
2022-08-17T07:57:32.531Z,99640.44
2022-08-17T08:00:27.285Z,99637.72
2022-08-17T08:03:03.296Z,99640.22
2022-08-17T08:05:50.565Z,99644.56
2022-08-17T08:08:26.602Z,99635.31
2022-08-17T08:11:03.277Z,99636.97
2022-08-17T08:13:32.290Z,99634.25
2022-08-17T08:16:25.548Z,99635.06
2022-08-17T08:18:57.074Z,99634.81
2022-08-17T08:21:31.970Z,99636.44
2022-08-17T08:24:00.847Z,99627.19
2022-08-17T08:26:32.093Z,99638.06
2022-08-17T08:29:04.451Z,99638.06
2022-08-17T08:31:42.509Z,99626.38
2022-08-17T08:34:58.817Z,99631.56
2022-08-17T08:37:17.837Z,99628.03
2022-08-17T08:39:52.228Z,99619.56
2022-08-17T08:42:23.457Z,99622.28
2022-08-17T08:45:04.099Z,99620.38
2022-08-17T08:47:45.539Z,99616.84
2022-08-17T08:50:37.356Z,99615.75
2022-08-17T08:53:14.279Z,99604.06
2022-08-17T08:55:52.820Z,99617.41
2022-08-17T08:58:31.632Z,99617.41
2022-08-17T09:01:23.962Z,99609.25
2022-08-17T09:04:26.010Z,99609.81
2022-08-17T09:07:03.766Z,99608.97
2022-08-17T09:09:36.942Z,99611.44
2022-08-17T09:12:06.804Z,99612.00
2022-08-17T09:14:46.631Z,99610.09
2022-08-17T09:17:17.059Z,99605.47
2022-08-17T09:19:50.243Z,99607.38
2022-08-17T09:22:25.865Z,99607.13
2022-08-17T09:24:57.339Z,99615.28
2022-08-17T09:27:28.370Z,99619.63
2022-08-17T09:29:58.781Z,99618.81
2022-08-17T09:32:32.672Z,99609.84
2022-08-17T09:35:03.336Z,99614.19
2022-08-17T09:37:33.728Z,99609.53
2022-08-17T09:40:10.236Z,99612.56
2022-08-17T09:42:41.726Z,99610.66
2022-08-17T09:45:17.806Z,99611.47
2022-08-17T09:47:49.211Z,99602.47
2022-08-17T09:51:03.224Z,99604.91
2022-08-17T09:53:10.050Z,99610.34
2022-08-17T09:55:49.352Z,99614.72
2022-08-17T09:58:21.364Z,99609.00
2022-08-17T10:00:55.683Z,99609.00
2022-08-17T10:03:35.242Z,99612.53
2022-08-17T10:06:13.289Z,99611.47
2022-08-17T10:08:43.831Z,99606.84
2022-08-17T10:11:33.821Z,99601.16
2022-08-17T10:14:37.759Z,99596.78
2022-08-17T10:16:56.970Z,99594.06
2022-08-17T10:19:26.695Z,99601.97
2022-08-17T10:22:32.559Z,99602.22
2022-08-17T10:25:23.089Z,99609.31
2022-08-17T10:27:54.189Z,99603.88
2022-08-17T10:30:23.778Z,99606.59
2022-08-17T10:32:55.027Z,99598.44
2022-08-17T10:35:34.454Z,99608.22
2022-08-17T10:38:19.654Z,99608.22
2022-08-17T10:40:55.376Z,99599.25
2022-08-17T10:43:31.044Z,99596.22
2022-08-17T10:46:10.496Z,99595.41
2022-08-17T10:49:26.547Z,99594.59
2022-08-17T10:51:54.939Z,99594.59
2022-08-17T10:54:58.372Z,99592.69
2022-08-17T10:57:44.834Z,99598.97
2022-08-17T11:00:16.033Z,99590.78
2022-08-17T11:02:50.020Z,99580.75
2022-08-17T11:05:43.468Z,99587.00
2022-08-17T11:08:47.558Z,99587.00
2022-08-17T11:11:47.864Z,99582.38
2022-08-17T11:14:41.276Z,99587.00
2022-08-17T11:17:19.222Z,99584.00
2022-08-17T11:19:57.843Z,99585.91
2022-08-17T11:23:00.900Z,99580.47
2022-08-17T11:25:39.351Z,99582.94
2022-08-17T11:28:09.289Z,99584.84
2022-08-17T11:30:48.930Z,99573.94
2022-08-17T11:33:55.787Z,99572.84
2022-08-17T11:36:50.199Z,99577.19
2022-08-17T11:39:33.573Z,99567.97
2022-08-17T11:42:05.995Z,99562.53
2022-08-17T11:44:42.405Z,99569.59
2022-08-17T11:47:30.256Z,99569.59
2022-08-17T11:50:27.712Z,99571.78
2022-08-17T11:52:56.118Z,99574.50
2022-08-17T11:55:57.518Z,99559.81
2022-08-17T11:58:38.597Z,99564.16
2022-08-17T12:01:07.506Z,99559.81
2022-08-17T12:03:55.819Z,99556.81
2022-08-17T12:06:42.929Z,99554.09
2022-08-17T12:09:14.087Z,99557.63
2022-08-17T12:12:11.336Z,99553.81
2022-08-17T12:15:05.771Z,99554.63
2022-08-17T12:17:41.550Z,99554.63
2022-08-17T12:20:15.062Z,99550.00
2022-08-17T12:22:53.461Z,99551.66
2022-08-17T12:25:23.001Z,99541.59
2022-08-17T12:28:06.099Z,99542.41
2022-08-17T12:30:37.481Z,99535.34
2022-08-17T12:33:12.793Z,99537.75
2022-08-17T12:35:40.870Z,99539.69
2022-08-17T12:38:32.248Z,99542.41
2022-08-17T12:40:59.859Z,99540.50
2022-08-17T12:43:30.454Z,99526.06
2022-08-17T12:46:01.205Z,99536.97
2022-08-17T12:48:59.373Z,99526.06
2022-08-17T12:51:29.206Z,99526.06
2022-08-17T12:53:57.413Z,99524.16
2022-08-17T12:56:25.587Z,99524.72
2022-08-17T12:58:55.665Z,99525.53
2022-08-17T13:01:26.290Z,99521.72
2022-08-17T13:03:59.805Z,99524.44
2022-08-17T13:06:28.974Z,99517.91
2022-08-17T13:08:57.021Z,99517.91
2022-08-17T13:11:25.457Z,99516.81
2022-08-17T13:13:55.065Z,99508.66
2022-08-17T13:16:26.508Z,99519.28
2022-08-17T13:18:55.537Z,99517.34
2022-08-17T13:21:27.768Z,99514.38
2022-08-17T13:23:57.879Z,99507.03
2022-08-17T13:26:29.548Z,99508.09
2022-08-17T13:28:57.562Z,99513.53
2022-08-17T13:31:39.415Z,99507.28
2022-08-17T13:34:33.413Z,99506.47
2022-08-17T13:37:34.768Z,99506.47
2022-08-17T13:40:26.038Z,99510.28
2022-08-17T13:42:54.418Z,99498.59
2022-08-17T13:45:40.317Z,99496.41
2022-08-17T13:48:14.519Z,99505.38
2022-08-17T13:50:43.701Z,99497.22
2022-08-17T13:53:19.995Z,99498.03
2022-08-17T13:55:49.363Z,99498.03
2022-08-17T13:58:21.690Z,99510.56
2022-08-17T14:00:51.599Z,99504.31
2022-08-17T14:03:21.272Z,99493.97
2022-08-17T14:05:50.133Z,99493.97
2022-08-17T14:08:18.784Z,99501.28
2022-08-17T14:10:47.249Z,99492.31
2022-08-17T14:13:15.644Z,99489.59
2022-08-17T14:15:56.267Z,99490.41
2022-08-17T14:18:35.495Z,99492.88
2022-08-17T14:21:14.498Z,99493.97
2022-08-17T14:23:54.445Z,99492.06
2022-08-17T14:26:23.338Z,99490.16
2022-08-17T14:28:56.286Z,99490.16
2022-08-17T14:31:25.072Z,99491.25
2022-08-17T14:33:54.669Z,99496.69
2022-08-17T14:36:22.652Z,99491.25
2022-08-17T14:38:51.021Z,99485.78
2022-08-17T14:41:22.195Z,99485.78
2022-08-17T14:43:51.384Z,99486.59
2022-08-17T14:46:19.378Z,99484.69
2022-08-17T14:48:47.580Z,99481.16
2022-08-17T14:51:17.152Z,99490.94
2022-08-17T14:53:45.882Z,99483.59
2022-08-17T14:56:14.473Z,99489.88
2022-08-17T14:58:42.929Z,99483.59
2022-08-17T15:01:11.088Z,99490.69
2022-08-17T15:03:40.867Z,99479.81
2022-08-17T15:06:09.425Z,99476.00
2022-08-17T15:08:39.040Z,99480.38
2022-08-17T15:11:07.356Z,99477.66
2022-08-17T15:13:52.217Z,99482.25
2022-08-17T15:16:21.574Z,99490.16
2022-08-17T15:18:50.204Z,99483.09
2022-08-17T15:21:18.625Z,99479.28
2022-08-17T15:23:48.030Z,99483.09
2022-08-17T15:26:16.894Z,99488.56
2022-08-17T15:28:44.874Z,99484.72
2022-08-17T15:31:31.715Z,99481.44
2022-08-17T15:34:00.176Z,99486.91
2022-08-17T15:36:28.185Z,99489.63
2022-08-17T15:38:58.929Z,99486.91
2022-08-17T15:41:28.170Z,99491.28
2022-08-17T15:43:56.295Z,99486.91
2022-08-17T15:46:25.632Z,99492.34
2022-08-17T15:48:55.029Z,99494.00
2022-08-17T15:51:24.602Z,99487.72
2022-08-17T15:53:54.689Z,99483.91
2022-08-17T15:56:24.025Z,99483.09
2022-08-17T15:58:52.125Z,99475.75
2022-08-17T16:02:33.663Z,99484.72
2022-08-17T16:04:26.667Z,99479.28
2022-08-17T16:06:59.262Z,99480.91
2022-08-17T16:09:27.411Z,99480.09
2022-08-17T16:11:56.846Z,99487.44
2022-08-17T16:14:32.477Z,99487.19
2022-08-17T16:17:02.895Z,99489.06
2022-08-17T16:19:30.913Z,99486.34
2022-08-17T16:21:58.921Z,99490.16
2022-08-17T16:24:26.942Z,99478.47
2022-08-17T16:26:56.895Z,99492.09
2022-08-17T16:29:25.027Z,99483.91
2022-08-17T16:31:53.433Z,99483.09
2022-08-17T16:34:21.482Z,99483.09
2022-08-17T16:36:55.795Z,99481.44
2022-08-17T16:39:26.417Z,99481.44
2022-08-17T16:41:54.606Z,99486.91
2022-08-17T16:44:24.039Z,99486.91
2022-08-17T16:46:52.080Z,99488.56
2022-08-17T16:49:35.426Z,99494.00
2022-08-17T16:52:10.017Z,99499.44
2022-08-17T16:54:39.097Z,99495.63
2022-08-17T16:57:07.131Z,99495.63
2022-08-17T16:59:40.811Z,99490.16
2022-08-17T17:02:13.845Z,99490.97
2022-08-17T17:04:44.411Z,99499.97
2022-08-17T17:07:21.367Z,99499.16
2022-08-17T17:09:52.637Z,99502.69
2022-08-17T17:12:21.011Z,99502.69
2022-08-17T17:15:10.750Z,99496.44
2022-08-17T17:17:39.561Z,99505.69
2022-08-17T17:20:10.142Z,99501.06
2022-08-17T17:22:42.849Z,99506.75
2022-08-17T17:25:14.595Z,99510.34
2022-08-17T17:27:47.269Z,99511.94
2022-08-17T17:30:20.704Z,99504.03
2022-08-17T17:32:51.234Z,99509.50
2022-08-17T17:35:21.828Z,99510.59
2022-08-17T17:37:49.953Z,99502.41
2022-08-17T17:40:21.537Z,99504.03
2022-08-17T17:42:49.973Z,99505.94
2022-08-17T17:45:21.740Z,99505.94
2022-08-17T17:47:49.918Z,99508.69
2022-08-17T17:50:18.398Z,99511.41
2022-08-17T17:52:48.659Z,99510.59
2022-08-17T17:55:24.413Z,99523.09
2022-08-17T17:57:59.202Z,99518.75
2022-08-17T18:00:33.153Z,99527.72
2022-08-17T18:03:11.125Z,99530.47
2022-08-17T18:05:47.622Z,99535.91
2022-08-17T18:08:34.052Z,99534.00
2022-08-17T18:11:08.810Z,99537.81
2022-08-17T18:13:43.987Z,99546.78
2022-08-17T18:16:14.286Z,99545.13
2022-08-17T18:18:44.625Z,99545.13
2022-08-17T18:21:16.799Z,99550.59
2022-08-17T18:23:52.180Z,99550.59
2022-08-17T18:26:41.920Z,99558.75
2022-08-17T18:29:46.066Z,99556.03
2022-08-17T18:32:36.732Z,99562.31
2022-08-17T18:35:30.294Z,99559.34
2022-08-17T18:38:20.981Z,99563.13
2022-08-17T18:40:58.275Z,99568.56
2022-08-17T18:43:27.478Z,99567.75
2022-08-17T18:46:29.525Z,99567.50
2022-08-17T18:49:00.682Z,99571.84
2022-08-17T18:51:40.315Z,99568.88
2022-08-17T18:54:18.269Z,99571.28
2022-08-17T18:56:50.400Z,99574.56
2022-08-17T18:59:39.895Z,99582.44
2022-08-17T19:02:44.215Z,99584.09
2022-08-17T19:05:18.480Z,99584.09
2022-08-17T19:07:47.105Z,99587.63
2022-08-17T19:10:20.613Z,99588.44
2022-08-17T19:12:50.328Z,99586.53
2022-08-17T19:15:20.001Z,99581.94
2022-08-17T19:17:52.182Z,99593.63
2022-08-17T19:20:23.760Z,99588.19
2022-08-17T19:22:58.076Z,99587.38
2022-08-17T19:25:27.676Z,99597.44
2022-08-17T19:28:03.044Z,99587.38
2022-08-17T19:30:31.406Z,99591.97
2022-08-17T19:32:59.530Z,99594.72
2022-08-17T19:35:35.781Z,99600.16
2022-08-17T19:38:12.904Z,99586.53
2022-08-17T19:40:52.732Z,99594.72
2022-08-17T19:43:24.615Z,99591.16
2022-08-17T19:45:58.372Z,99587.63
2022-08-17T19:48:35.602Z,99590.34
2022-08-17T19:51:06.610Z,99589.56
2022-08-17T19:54:03.826Z,99598.53
2022-08-17T19:56:31.147Z,99596.91
2022-08-17T19:59:02.238Z,99591.47
2022-08-17T20:01:35.468Z,99590.09
2022-08-17T20:04:08.132Z,99590.09
2022-08-17T20:06:40.201Z,99595.53
2022-08-17T20:09:15.238Z,99590.91
2022-08-17T20:11:45.831Z,99593.63
2022-08-17T20:14:15.898Z,99603.97
2022-08-17T20:16:43.964Z,99600.19
2022-08-17T20:19:18.081Z,99600.19
2022-08-17T20:21:50.882Z,99601.25
2022-08-17T20:24:21.491Z,99601.25
2022-08-17T20:26:58.604Z,99596.63
2022-08-17T20:29:46.993Z,99591.47
2022-08-17T20:32:23.893Z,99599.63
2022-08-17T20:35:04.328Z,99595.25
2022-08-17T20:37:34.146Z,99599.63
2022-08-17T20:40:22.104Z,99607.25
2022-08-17T20:42:50.078Z,99602.88
2022-08-17T20:45:43.701Z,99597.97
2022-08-17T20:48:36.443Z,99594.97
2022-08-17T20:51:28.221Z,99602.03
2022-08-17T20:54:37.973Z,99603.38
2022-08-17T20:57:13.669Z,99604.22
2022-08-17T21:00:00.255Z,99599.59
2022-08-17T21:02:29.475Z,99597.66
2022-08-17T21:05:04.017Z,99593.59
2022-08-17T21:07:58.091Z,99593.31
2022-08-17T21:10:31.902Z,99594.41
2022-08-17T21:13:23.054Z,99593.03
2022-08-17T21:15:54.394Z,99595.19
2022-08-17T21:18:26.352Z,99596.84
2022-08-17T21:21:02.958Z,99598.75
2022-08-17T21:23:40.360Z,99590.84
2022-08-17T21:26:26.751Z,99587.56
2022-08-17T21:29:32.592Z,99591.94
2022-08-17T21:32:24.318Z,99591.38
2022-08-17T21:35:26.772Z,99584.84
2022-08-17T21:37:59.667Z,99581.03
2022-08-17T21:40:30.318Z,99583.19
2022-08-17T21:43:01.725Z,99591.63
2022-08-17T21:45:35.159Z,99584.28
2022-08-17T21:48:16.490Z,99572.03
2022-08-17T21:50:47.585Z,99575.56
2022-08-17T21:53:23.401Z,99583.16
2022-08-17T21:55:53.110Z,99588.06
2022-08-17T21:58:28.870Z,99577.19
2022-08-17T22:01:31.864Z,99584.81
2022-08-17T22:04:05.036Z,99580.72
2022-08-17T22:06:41.394Z,99585.34
2022-08-17T22:09:17.965Z,99588.06
2022-08-17T22:12:00.272Z,99584.78
2022-08-17T22:14:52.375Z,99576.31
2022-08-17T22:17:25.118Z,99576.06
2022-08-17T22:19:55.846Z,99574.44
2022-08-17T22:22:31.432Z,99582.03
2022-08-17T22:25:03.518Z,99584.19
2022-08-17T22:27:57.567Z,99582.28
2022-08-17T22:30:36.597Z,99592.09
2022-08-17T22:33:37.630Z,99588.00
2022-08-17T22:36:15.062Z,99594.00
2022-08-17T22:38:44.396Z,99603.78
2022-08-17T22:41:46.616Z,99598.88
2022-08-17T22:44:25.734Z,99606.50
2022-08-17T22:47:00.315Z,99597.78
2022-08-17T22:49:32.805Z,99599.91
2022-08-17T22:52:07.345Z,99605.34
2022-08-17T22:54:54.267Z,99614.00
2022-08-17T22:57:52.662Z,99622.16
2022-08-17T23:00:37.334Z,99618.94
2022-08-17T23:03:15.864Z,99615.63
2022-08-17T23:05:48.159Z,99608.81
2022-08-17T23:08:21.429Z,99609.06
2022-08-17T23:10:50.639Z,99616.16
2022-08-17T23:13:21.323Z,99628.38
2022-08-17T23:15:51.229Z,99615.56
2022-08-17T23:18:20.416Z,99617.16
2022-08-17T23:20:51.458Z,99626.41
2022-08-17T23:23:23.710Z,99624.47
2022-08-17T23:25:54.633Z,99628.56
2022-08-17T23:28:23.642Z,99626.66
2022-08-17T23:30:51.687Z,99622.31
2022-08-17T23:33:21.311Z,99623.41
2022-08-17T23:35:52.760Z,99616.59
2022-08-17T23:38:22.148Z,99617.66
2022-08-17T23:40:51.610Z,99624.75
2022-08-17T23:43:25.198Z,99620.13
2022-08-17T23:45:59.743Z,99619.88
2022-08-17T23:48:36.615Z,99611.19
2022-08-17T23:51:10.281Z,99622.06
2022-08-17T23:53:41.947Z,99623.66
2022-08-17T23:56:11.775Z,99622.28
2022-08-17T23:58:41.537Z,99621.19
